createdAt,value
2017-10-12T03:30:26.971Z,96.00
2017-10-12T03:32:55.353Z,96.30
2017-10-12T03:35:23.694Z,96.40
2017-10-12T03:37:51.323Z,96.40
2017-10-12T03:40:18.906Z,96.30
2017-10-12T03:42:46.490Z,96.50
2017-10-12T03:45:14.109Z,96.40
2017-10-12T03:47:41.690Z,96.40
2017-10-12T03:50:09.265Z,96.20
2017-10-12T03:52:36.943Z,96.20
2017-10-12T03:55:05.285Z,96.10
2017-10-12T03:57:32.867Z,96.10
2017-10-12T04:00:00.466Z,96.10
2017-10-12T04:02:28.101Z,96.40
2017-10-12T04:04:56.565Z,95.90
2017-10-12T04:07:24.141Z,96.00
2017-10-12T04:09:52.514Z,95.80
2017-10-12T04:12:20.967Z,95.80
2017-10-12T04:14:48.567Z,95.80
2017-10-12T04:17:16.217Z,95.80
2017-10-12T04:19:44.582Z,96.00
2017-10-12T04:22:12.230Z,95.90
2017-10-12T04:24:39.838Z,95.60
2017-10-12T04:27:07.470Z,95.80
2017-10-12T04:29:35.837Z,95.80
2017-10-12T04:32:03.541Z,95.80
2017-10-12T04:34:31.161Z,95.70
2017-10-12T04:36:58.825Z,95.60
2017-10-12T04:39:27.311Z,95.60
2017-10-12T04:41:55.682Z,95.60
2017-10-12T04:44:24.025Z,95.70
2017-10-12T04:46:51.723Z,95.70
2017-10-12T04:49:20.070Z,95.90
2017-10-12T04:51:47.691Z,95.90
2017-10-12T04:54:15.314Z,95.90
2017-10-12T04:56:43.663Z,95.90
2017-10-12T04:59:11.291Z,96.10
2017-10-12T05:01:38.869Z,95.90
2017-10-12T05:04:06.449Z,96.10
2017-10-12T05:06:34.057Z,96.20
2017-10-12T05:09:01.690Z,96.20
2017-10-12T05:11:30.038Z,96.20
2017-10-12T05:13:57.710Z,96.20
2017-10-12T05:16:25.295Z,96.20
2017-10-12T05:18:53.694Z,96.10
2017-10-12T05:21:21.270Z,96.10
2017-10-12T05:23:48.881Z,96.10
2017-10-12T05:26:17.268Z,96.10
2017-10-12T05:28:45.614Z,96.10
2017-10-12T05:31:13.193Z,96.10
2017-10-12T05:33:41.553Z,96.00
2017-10-12T05:36:09.894Z,96.30
2017-10-12T05:38:37.505Z,96.30
2017-10-12T05:41:05.903Z,96.10
2017-10-12T05:43:33.486Z,96.10
2017-10-12T05:46:01.101Z,96.00
2017-10-12T05:48:29.478Z,95.80
2017-10-12T05:50:57.859Z,95.80
2017-10-12T05:53:26.209Z,95.50
2017-10-12T05:55:53.891Z,95.50
2017-10-12T05:58:22.266Z,95.30
2017-10-12T06:00:50.650Z,95.20
2017-10-12T06:03:19.042Z,95.00
2017-10-12T06:05:46.633Z,95.00
2017-10-12T06:08:14.246Z,95.00
2017-10-12T06:10:42.618Z,94.80
2017-10-12T06:13:10.970Z,94.70
2017-10-12T06:15:38.621Z,94.70
2017-10-12T06:18:06.214Z,94.80
2017-10-12T06:20:34.570Z,94.80
2017-10-12T06:23:02.178Z,94.80
2017-10-12T06:25:29.765Z,94.90
2017-10-12T06:27:57.355Z,95.20
2017-10-12T06:30:25.030Z,95.40
2017-10-12T06:32:53.378Z,95.80
2017-10-12T06:35:20.966Z,95.70
2017-10-12T06:37:49.386Z,95.70
2017-10-12T06:40:17.011Z,95.60
2017-10-12T06:42:45.366Z,95.80
2017-10-12T06:45:12.989Z,95.80
2017-10-12T06:47:40.576Z,96.00
2017-10-12T06:50:08.262Z,95.70
2017-10-12T06:52:36.639Z,95.40
2017-10-12T06:55:05.970Z,95.20
2017-10-12T06:57:33.550Z,95.20
2017-10-12T07:00:01.150Z,95.30
2017-10-12T07:02:29.530Z,95.00
2017-10-12T07:04:57.905Z,94.80
2017-10-12T07:07:26.265Z,95.10
2017-10-12T07:09:53.918Z,95.10
2017-10-12T07:12:21.511Z,94.70
2017-10-12T07:14:49.866Z,94.40
2017-10-12T07:17:17.474Z,94.40
2017-10-12T07:19:45.058Z,94.20
2017-10-12T07:22:12.694Z,94.50
2017-10-12T07:24:40.282Z,94.50
2017-10-12T07:27:08.069Z,94.50
2017-10-12T07:29:36.497Z,94.20
2017-10-12T07:32:04.092Z,94.10
2017-10-12T07:34:31.742Z,94.30
2017-10-12T07:36:59.362Z,94.40
2017-10-12T07:39:26.947Z,94.60
2017-10-12T07:41:54.533Z,94.40
2017-10-12T07:44:22.146Z,94.50
2017-10-12T07:46:49.725Z,94.10
2017-10-12T07:49:17.331Z,93.70
2017-10-12T07:51:45.689Z,93.70
2017-10-12T07:54:13.338Z,93.70
2017-10-12T07:56:40.931Z,93.20
2017-10-12T07:59:09.277Z,93.30
2017-10-12T08:01:36.902Z,93.40
2017-10-12T08:04:04.490Z,93.30
2017-10-12T08:06:32.078Z,93.20
2017-10-12T08:09:00.461Z,93.40
2017-10-12T08:11:28.810Z,93.40
2017-10-12T08:13:56.465Z,93.40
2017-10-12T08:16:24.048Z,93.40
2017-10-12T08:18:52.410Z,93.20
2017-10-12T08:21:20.050Z,93.20
2017-10-12T08:23:47.668Z,93.40
2017-10-12T08:26:15.280Z,93.60
2017-10-12T08:28:42.979Z,93.70
2017-10-12T08:31:10.634Z,93.60
2017-10-12T08:33:39.009Z,93.70
2017-10-12T08:36:07.480Z,93.70
2017-10-12T08:38:35.850Z,94.20
2017-10-12T08:41:04.246Z,94.00
2017-10-12T08:43:32.634Z,93.80
2017-10-12T08:46:00.287Z,93.80
2017-10-12T08:48:28.876Z,93.70
2017-10-12T08:50:57.248Z,93.80
2017-10-12T08:53:25.598Z,93.60
2017-10-12T08:55:53.217Z,93.50
2017-10-12T08:58:20.810Z,93.60
2017-10-12T09:00:48.396Z,93.80
2017-10-12T09:03:16.877Z,93.90
2017-10-12T09:05:45.246Z,93.50
2017-10-12T09:08:12.859Z,93.50
2017-10-12T09:10:40.478Z,93.30
2017-10-12T09:13:08.855Z,93.10
2017-10-12T09:15:37.330Z,92.80
2017-10-12T09:18:05.706Z,92.90
2017-10-12T09:20:34.085Z,92.30
2017-10-12T09:23:02.433Z,92.40
2017-10-12T09:25:30.118Z,92.40
2017-10-12T09:27:58.485Z,92.00
2017-10-12T09:30:26.070Z,92.00
2017-10-12T09:32:53.698Z,92.00
2017-10-12T09:35:21.294Z,92.10
2017-10-12T09:37:48.884Z,92.30
2017-10-12T09:40:16.606Z,92.30
2017-10-12T09:42:44.198Z,92.60
2017-10-12T09:45:11.810Z,92.00
2017-10-12T09:47:40.202Z,91.90
2017-10-12T09:50:08.554Z,91.50
2017-10-12T09:52:36.229Z,91.60
2017-10-12T09:55:04.634Z,91.10
2017-10-12T09:57:32.226Z,91.10
2017-10-12T09:59:59.826Z,91.40
2017-10-12T10:02:28.306Z,90.90
2017-10-12T10:04:56.658Z,91.20
2017-10-12T10:07:24.244Z,91.20
2017-10-12T10:09:52.710Z,91.30
2017-10-12T10:12:20.377Z,91.30
2017-10-12T10:14:50.973Z,90.70
2017-10-12T10:17:18.793Z,90.70
2017-10-12T10:19:46.378Z,90.90
2017-10-12T10:22:13.977Z,91.10
2017-10-12T10:24:41.558Z,91.00
2017-10-12T10:27:09.901Z,90.50
2017-10-12T10:29:37.505Z,90.50
2017-10-12T10:32:05.086Z,90.40
2017-10-12T10:34:32.670Z,90.50
2017-10-12T10:37:00.298Z,90.30
2017-10-12T10:39:27.882Z,89.70
2017-10-12T10:41:55.466Z,86.10
2017-10-12T10:44:23.083Z,88.30
2017-10-12T10:46:50.667Z,88.20
2017-10-12T10:49:18.254Z,87.00
2017-10-12T10:51:46.622Z,87.90
2017-10-12T10:54:14.334Z,87.80
2017-10-12T10:56:41.913Z,87.30
2017-10-12T10:59:09.502Z,85.10
2017-10-12T11:01:37.101Z,84.50
2017-10-12T11:04:04.678Z,85.30
2017-10-12T11:06:32.278Z,85.90
2017-10-12T11:08:59.857Z,87.00
2017-10-12T11:11:28.202Z,85.30
2017-10-12T11:13:55.813Z,85.30
2017-10-12T11:16:23.391Z,85.10
2017-10-12T11:18:51.003Z,84.70
2017-10-12T11:21:18.621Z,84.30
2017-10-12T11:23:46.202Z,84.30
2017-10-12T11:26:13.832Z,84.60
2017-10-12T11:28:41.411Z,86.10
2017-10-12T11:31:08.994Z,83.30
2017-10-12T11:33:37.373Z,83.70
2017-10-12T11:36:05.722Z,83.10
2017-10-12T11:38:33.305Z,83.00
2017-10-12T11:41:01.716Z,83.00
2017-10-12T11:43:29.302Z,83.00
2017-10-12T11:45:56.883Z,83.40
2017-10-12T11:48:24.511Z,82.80
2017-10-12T11:50:52.089Z,82.40
2017-10-12T11:53:19.666Z,81.10
2017-10-12T11:55:47.340Z,81.10
2017-10-12T11:58:15.694Z,81.80
2017-10-12T12:00:43.275Z,81.70
2017-10-12T12:03:11.676Z,80.30
2017-10-12T12:05:39.265Z,80.30
2017-10-12T12:08:06.842Z,78.70
2017-10-12T12:10:34.442Z,78.30
2017-10-12T12:13:02.795Z,77.30
2017-10-12T12:15:30.401Z,77.10
2017-10-12T12:17:58.022Z,77.20
2017-10-12T12:20:26.369Z,78.60
2017-10-12T12:22:53.954Z,78.70
2017-10-12T12:25:22.350Z,78.80
2017-10-12T12:27:50.698Z,77.90
2017-10-12T12:30:18.274Z,78.60
2017-10-12T12:32:46.719Z,78.30
2017-10-12T12:35:14.297Z,77.60
2017-10-12T12:37:41.878Z,76.90
2017-10-12T12:40:10.250Z,76.40
2017-10-12T12:42:38.610Z,76.70
2017-10-12T12:45:06.235Z,76.60
2017-10-12T12:47:33.809Z,75.70
2017-10-12T12:50:01.389Z,76.30
2017-10-12T12:52:29.006Z,77.70
2017-10-12T12:54:56.591Z,75.90
2017-10-12T12:57:24.280Z,75.80
2017-10-12T12:59:52.767Z,74.30
2017-10-12T13:02:21.113Z,74.00
2017-10-12T13:04:48.797Z,74.00
2017-10-12T13:07:17.178Z,71.90
2017-10-12T13:09:45.522Z,72.20
2017-10-12T13:12:13.129Z,72.20
2017-10-12T13:14:40.710Z,71.80
2017-10-12T13:17:08.317Z,70.90
2017-10-12T13:19:35.898Z,71.20
2017-10-12T13:22:04.372Z,72.40
2017-10-12T13:24:32.742Z,71.80
2017-10-12T13:27:00.370Z,71.80
2017-10-12T13:29:28.065Z,72.50
2017-10-12T13:31:56.440Z,72.50
2017-10-12T13:34:24.826Z,73.40
2017-10-12T13:36:53.171Z,74.20
2017-10-12T13:39:20.865Z,74.20
2017-10-12T13:41:49.266Z,73.00
2017-10-12T13:44:16.848Z,72.90
2017-10-12T13:46:44.431Z,73.90
2017-10-12T13:49:13.558Z,73.10
2017-10-12T13:51:41.150Z,73.10
2017-10-12T13:54:08.739Z,71.70
2017-10-12T13:56:36.371Z,72.40
2017-10-12T13:59:03.950Z,73.10
2017-10-12T14:01:31.536Z,73.40
2017-10-12T14:04:00.121Z,73.00
2017-10-12T14:06:28.502Z,72.70
2017-10-12T14:08:56.874Z,72.40
2017-10-12T14:11:25.518Z,74.20
2017-10-12T14:13:53.106Z,73.80
2017-10-12T14:16:20.746Z,71.20
2017-10-12T14:18:48.343Z,71.10
2017-10-12T14:21:16.695Z,73.30
2017-10-12T14:23:44.299Z,73.30
2017-10-12T14:26:11.937Z,71.80
2017-10-12T14:28:40.284Z,73.00
2017-10-12T14:31:07.908Z,73.00
2017-10-12T14:33:35.489Z,72.30
2017-10-12T14:38:30.634Z,73.80
2017-10-12T14:40:58.218Z,75.20
2017-10-12T14:43:26.606Z,73.30
2017-10-12T14:45:54.186Z,73.30
2017-10-12T14:48:21.771Z,73.30
2017-10-12T14:50:49.397Z,73.60
2017-10-12T14:53:16.982Z,74.50
2017-10-12T14:55:44.567Z,75.90
2017-10-12T14:58:12.176Z,77.30
2017-10-12T15:00:39.762Z,79.30
2017-10-12T15:03:07.359Z,79.10
2017-10-12T15:05:35.775Z,79.40
2017-10-12T15:08:03.353Z,79.50
2017-10-12T15:10:31.706Z,80.50
2017-10-12T15:12:59.310Z,80.40
2017-10-12T15:15:26.939Z,80.10
2017-10-12T15:17:54.528Z,80.40
2017-10-12T15:20:22.114Z,81.70
2017-10-12T15:22:50.491Z,81.60
2017-10-12T15:25:18.838Z,81.10
2017-10-12T15:27:46.428Z,81.10
2017-10-12T15:30:14.042Z,81.70
2017-10-12T15:32:41.633Z,82.20
2017-10-12T15:35:10.001Z,82.20
2017-10-12T15:37:37.578Z,82.20
2017-10-12T15:40:05.921Z,83.10
2017-10-12T15:42:33.559Z,83.60
2017-10-12T15:45:01.141Z,82.90
2017-10-12T15:47:28.732Z,82.40
2017-10-12T15:49:57.114Z,82.80
2017-10-12T15:52:24.758Z,82.60
2017-10-12T15:54:53.114Z,81.70
2017-10-12T15:57:20.709Z,81.60
2017-10-12T15:59:48.333Z,81.60
2017-10-12T16:02:15.926Z,81.60
2017-10-12T16:04:43.514Z,81.60
2017-10-12T16:07:11.147Z,82.00
2017-10-12T16:09:38.754Z,81.60
2017-10-12T16:12:06.339Z,82.00
2017-10-12T16:14:33.970Z,82.40
2017-10-12T16:17:01.558Z,83.50
2017-10-12T16:19:29.154Z,83.50
2017-10-12T16:21:56.757Z,83.90
2017-10-12T16:24:24.337Z,84.30
2017-10-12T16:26:51.978Z,84.10
2017-10-12T16:29:19.563Z,84.30
2017-10-12T16:31:47.921Z,85.30
2017-10-12T16:34:15.546Z,85.20
2017-10-12T16:36:43.134Z,85.00
2017-10-12T16:39:10.725Z,84.80
2017-10-12T16:41:39.113Z,84.30
2017-10-12T16:44:06.711Z,84.30
2017-10-12T16:46:34.305Z,85.00
2017-10-12T16:49:01.914Z,85.10
2017-10-12T16:51:29.551Z,85.60
2017-10-12T16:53:57.137Z,85.20
2017-10-12T16:56:24.870Z,84.90
2017-10-12T16:58:52.486Z,85.20
2017-10-12T17:01:20.206Z,85.40
2017-10-12T17:03:47.842Z,85.60
2017-10-12T17:06:16.214Z,85.30
2017-10-12T17:08:44.589Z,84.90
2017-10-12T17:11:12.996Z,85.00
2017-10-12T17:13:40.593Z,85.00
2017-10-12T17:16:08.200Z,85.50
2017-10-12T17:18:36.586Z,85.70
2017-10-12T17:21:04.306Z,85.70
2017-10-12T17:25:59.661Z,91.10
2017-10-12T17:28:28.057Z,91.20
2017-10-12T17:33:23.265Z,93.50
2017-10-12T17:35:50.883Z,92.00
2017-10-12T17:38:19.264Z,91.20
2017-10-12T17:40:46.861Z,91.10
2017-10-12T17:43:14.528Z,91.00
2017-10-12T17:45:42.657Z,90.70
2017-10-12T17:48:10.250Z,91.10
2017-10-12T17:50:37.890Z,90.40
2017-10-12T17:53:06.248Z,91.00
2017-10-12T17:55:33.985Z,91.00
2017-10-12T17:58:01.613Z,91.00
2017-10-12T18:00:29.270Z,91.20
2017-10-12T18:02:56.878Z,91.30
2017-10-12T18:05:24.489Z,90.90
2017-10-12T18:07:52.174Z,91.50
2017-10-12T18:10:19.802Z,92.30
2017-10-12T18:12:48.178Z,92.90
2017-10-12T18:15:16.554Z,93.60
2017-10-12T18:17:44.977Z,93.40
2017-10-12T18:20:12.567Z,93.40
2017-10-12T18:22:40.198Z,94.80
2017-10-12T18:25:07.819Z,94.60
2017-10-12T18:27:35.482Z,93.30
2017-10-12T18:30:03.115Z,93.50
2017-10-12T18:32:31.509Z,93.90
2017-10-12T18:34:59.981Z,94.20
2017-10-12T18:37:28.363Z,93.60
2017-10-12T18:39:56.715Z,94.90
2017-10-12T18:42:24.394Z,94.90
2017-10-12T18:44:52.751Z,94.30
2017-10-12T18:47:20.342Z,94.30
2017-10-12T18:49:48.746Z,94.60
2017-10-12T18:52:16.374Z,94.60
2017-10-12T18:54:44.750Z,94.20
2017-10-12T18:57:13.126Z,94.70
2017-10-12T18:59:41.479Z,93.70
2017-10-12T19:02:09.061Z,93.70
2017-10-12T19:04:37.428Z,93.60
2017-10-12T19:07:05.098Z,93.60
2017-10-12T19:09:33.587Z,94.30
2017-10-12T19:12:01.959Z,94.20
2017-10-12T19:14:30.334Z,94.50
2017-10-12T19:16:58.813Z,94.90
2017-10-12T19:19:27.171Z,94.90
2017-10-12T19:21:54.753Z,94.80
2017-10-12T19:24:23.138Z,94.90
2017-10-12T19:26:50.727Z,94.80
2017-10-12T19:29:18.350Z,94.80
2017-10-12T19:31:46.697Z,94.40
2017-10-12T19:34:14.281Z,94.40
2017-10-12T19:36:42.708Z,94.10
2017-10-12T19:39:10.290Z,94.10
2017-10-12T19:41:38.642Z,94.40
2017-10-12T19:44:06.281Z,94.60
2017-10-12T19:46:33.964Z,94.20
2017-10-12T19:49:01.546Z,94.30
2017-10-12T19:51:29.156Z,94.70
2017-10-12T19:53:56.833Z,94.50
2017-10-12T19:56:24.419Z,94.60
2017-10-12T19:59:06.989Z,94.60
2017-10-12T20:01:19.722Z,94.60
2017-10-12T20:03:47.334Z,94.70
2017-10-12T20:06:15.811Z,94.30
2017-10-12T20:08:44.154Z,94.50
2017-10-12T20:11:11.840Z,94.50
2017-10-12T20:13:39.518Z,93.50
2017-10-12T20:16:07.861Z,93.60
2017-10-12T20:18:35.541Z,93.50
2017-10-12T20:21:04.023Z,93.90
2017-10-12T20:23:32.378Z,95.70
2017-10-12T20:26:00.030Z,95.60
2017-10-12T20:28:27.644Z,94.00
2017-10-12T20:30:55.237Z,95.60
2017-10-12T20:33:22.945Z,98.10
2017-10-12T20:35:51.317Z,93.60
2017-10-12T20:38:19.698Z,94.00
2017-10-12T20:40:48.174Z,95.10
2017-10-12T20:43:16.522Z,95.10
2017-10-12T20:45:44.103Z,95.10
2017-10-12T20:48:11.774Z,93.50
2017-10-12T20:50:40.305Z,94.60
2017-10-12T20:53:07.889Z,94.60
2017-10-12T20:55:35.494Z,93.20
2017-10-12T20:58:03.150Z,94.00
2017-10-12T21:00:30.790Z,93.60
2017-10-12T21:02:59.260Z,92.50
2017-10-12T21:05:26.847Z,92.50
2017-10-12T21:07:54.424Z,92.50
2017-10-12T21:10:22.145Z,92.50
2017-10-12T21:12:49.726Z,92.70
2017-10-12T21:15:17.370Z,92.50
2017-10-12T21:17:45.850Z,92.60
2017-10-12T21:20:14.198Z,92.30
2017-10-12T21:22:41.788Z,92.30
2017-10-12T21:25:10.268Z,93.70
2017-10-12T21:27:38.748Z,94.30
2017-10-12T21:30:08.047Z,92.60
2017-10-12T21:32:36.398Z,92.90
2017-10-12T21:35:04.078Z,92.80
2017-10-12T21:37:32.470Z,94.10
2017-10-12T21:40:00.821Z,93.20
2017-10-12T21:42:28.400Z,93.20
2017-10-12T21:44:57.033Z,92.50
2017-10-12T21:47:24.895Z,92.50
2017-10-12T21:49:52.659Z,92.70
2017-10-12T21:52:20.449Z,93.50
2017-10-12T21:54:48.287Z,94.30
2017-10-12T21:57:16.049Z,93.70
2017-10-12T21:59:43.919Z,93.10
2017-10-12T22:02:11.599Z,93.00
2017-10-12T22:04:39.440Z,92.70
2017-10-12T22:07:07.306Z,92.50
2017-10-12T22:09:35.069Z,92.70
2017-10-12T22:12:02.935Z,92.70
2017-10-12T22:14:30.799Z,92.80
2017-10-12T22:16:58.561Z,92.80
2017-10-12T22:19:26.325Z,92.90
2017-10-12T22:21:53.984Z,92.80
2017-10-12T22:24:21.851Z,93.10
2017-10-12T22:26:49.613Z,93.00
2017-10-12T22:29:17.376Z,93.20
